Time;durP1;ratioP1;P1;durP2;ratioP2;P2;SDS_P1;SDS_P2;PMS_P1;PMS_P2;Temp;Humidity;BMP_temperature;BMP_pressure;BME280_temperature;BME280_humidity;BME280_pressure;Samples;Min_cycle;Max_cycle;Signal;HPM_P1;HPM_P2
2022/05/09 00:02:04;;;;;;;10.18;6.00;;;;;;;12.59;100.00;100553.85;1747889;82;21562;-73
2022/05/09 00:04:30;;;;;;;9.13;5.67;;;;;;;12.54;100.00;100547.89;1748150;81;21226;-72
2022/05/09 00:06:57;;;;;;;12.03;5.55;;;;;;;12.47;100.00;100554.30;1748032;82;21115;-72
2022/05/09 00:09:25;;;;;;;8.28;6.03;;;;;;;12.39;100.00;100544.89;1748230;82;21589;-73
2022/05/09 00:11:52;;;;;;;10.38;6.00;;;;;;;12.34;100.00;100554.77;1748054;82;21053;-73
2022/05/09 00:16:34;;;;;;;13.10;6.33;;;;;;;12.27;100.00;100547.15;1795773;79;22542;-72
2022/05/09 00:19:03;;;;;;;8.65;6.35;;;;;;;12.15;100.00;100537.91;1756604;81;21050;-71
2022/05/09 00:21:37;;;;;;;10.03;6.28;;;;;;;12.08;100.00;100537.27;1756421;81;21081;-72
2022/05/09 00:24:08;;;;;;;10.20;6.75;;;;;;;12.03;100.00;100539.66;1755506;81;20942;-71
2022/05/09 00:26:34;;;;;;;11.45;6.87;;;;;;;11.94;100.00;100535.13;1762911;80;20961;-72
2022/05/09 00:29:02;;;;;;;10.48;7.05;;;;;;;11.89;100.00;100550.28;1790668;80;21024;-71
2022/05/09 00:31:29;;;;;;;12.18;7.42;;;;;;;11.83;100.00;100542.54;1790844;80;21032;-72
2022/05/09 00:33:56;;;;;;;12.63;7.17;;;;;;;11.76;100.00;100542.36;1790778;80;21225;-73
2022/05/09 00:36:25;;;;;;;11.05;7.30;;;;;;;11.68;100.00;100540.44;1790843;80;21004;-72
2022/05/09 00:38:51;;;;;;;10.75;8.05;;;;;;;11.60;100.00;100536.75;1790644;80;21083;-71
2022/05/09 00:41:42;;;;;;;11.18;8.43;;;;;;;11.53;100.00;100546.65;1790519;80;21072;-73
2022/05/09 00:44:17;;;;;;;12.13;7.30;;;;;;;11.45;100.00;100548.67;1790131;80;21031;-71
2022/05/09 00:46:47;;;;;;;13.60;7.95;;;;;;;11.40;100.00;100553.25;1790625;80;21190;-70
2022/05/09 00:49:45;;;;;;;;;;;;;;;11.34;100.00;100549.05;1793728;80;21048;-70
2022/05/09 00:52:36;;;;;;;10.78;8.15;;;;;;;11.30;100.00;100543.94;1790585;80;20162;-70
2022/05/09 00:55:14;;;;;;;10.35;8.00;;;;;;;11.22;100.00;100549.91;1790739;80;21032;-71
2022/05/09 00:58:04;;;;;;;10.13;7.37;;;;;;;11.16;100.00;100550.09;1790839;80;21103;-70
2022/05/09 01:00:30;;;;;;;10.70;7.30;;;;;;;11.13;100.00;100558.55;1790227;80;21183;-71
2022/05/09 01:03:07;;;;;;;10.10;7.90;;;;;;;11.12;100.00;100563.39;1790682;80;21522;-71
2022/05/09 01:05:34;;;;;;;10.93;7.17;;;;;;;11.11;100.00;100555.09;1791019;80;21072;-70
2022/05/09 01:08:01;;;;;;;10.55;7.72;;;;;;;11.11;100.00;100559.05;1790494;80;21024;-71
2022/05/09 01:10:34;;;;;;;8.88;7.20;;;;;;;11.11;100.00;100556.41;1790704;80;21040;-71
2022/05/09 01:13:07;;;;;;;11.25;7.80;;;;;;;11.09;100.00;100551.64;1790605;80;21151;-71
2022/05/09 01:15:34;;;;;;;9.75;7.60;;;;;;;11.10;100.00;100554.66;1785581;80;21088;-72
2022/05/09 01:18:03;;;;;;;11.78;7.62;;;;;;;11.09;100.00;100551.64;1779435;80;21104;-71
2022/05/09 01:20:31;;;;;;;12.85;7.65;;;;;;;11.09;100.00;100550.31;1779879;80;21060;-72
2022/05/09 01:23:00;;;;;;;10.85;7.55;;;;;;;11.08;100.00;100553.84;1779543;80;21032;-71
2022/05/09 01:25:28;;;;;;;10.30;6.62;;;;;;;11.08;100.00;100557.80;1779590;80;21194;-70
2022/05/09 01:27:56;;;;;;;10.30;5.80;;;;;;;11.08;100.00;100564.39;1778796;80;21080;-70
2022/05/09 01:30:27;;;;;;;8.28;6.20;;;;;;;11.09;100.00;100563.50;1778987;80;21033;-71
2022/05/09 01:33:10;;;;;;;9.40;6.35;;;;;;;11.10;100.00;100565.20;1755706;80;21534;-71
2022/05/09 01:35:52;;;;;;;7.67;6.08;;;;;;;11.13;100.00;100570.41;1748151;82;21101;-70
2022/05/09 01:38:35;;;;;;;7.62;5.95;;;;;;;11.15;100.00;100572.97;1747856;82;21104;-72
2022/05/09 01:41:02;;;;;;;9.05;6.25;;;;;;;11.16;100.00;100579.09;1748198;82;21048;-73
2022/05/09 01:43:42;;;;;;;11.20;5.97;;;;;;;11.17;100.00;100586.11;1748099;82;21033;-71
2022/05/09 01:46:17;;;;;;;8.35;6.22;;;;;;;11.18;100.00;100585.19;1747842;82;21065;-72
2022/05/09 01:51:32;;;;;;;8.70;4.92;;;;;;;11.21;100.00;100591.70;1748315;82;21147;-72
2022/05/09 01:53:59;;;;;;;8.50;5.55;;;;;;;11.22;100.00;100585.50;1748766;82;21039;-71
2022/05/09 01:56:29;;;;;;;6.80;4.92;;;;;;;11.25;100.00;100588.91;1750139;82;21096;-72
2022/05/09 01:58:56;;;;;;;7.45;5.00;;;;;;;11.25;100.00;100595.94;1749523;82;21099;-72
2022/05/09 02:01:26;;;;;;;8.83;4.55;;;;;;;11.25;100.00;100592.87;1749839;82;21009;-70
2022/05/09 02:03:54;;;;;;;;;;;;;;;11.28;100.00;100600.66;1752124;82;21565;-70
2022/05/09 02:06:20;;;;;;;8.00;4.40;;;;;;;11.31;100.00;100597.92;1748941;82;20203;-70
2022/05/09 02:08:48;;;;;;;5.22;3.83;;;;;;;11.32;100.00;100602.76;1748748;82;20993;-71
2022/05/09 02:11:15;;;;;;;4.37;3.80;;;;;;;11.34;100.00;100595.20;1749117;82;21561;-72
2022/05/09 02:13:41;;;;;;;4.90;4.12;;;;;;;11.35;100.00;100596.06;1748862;82;21100;-71
2022/05/09 02:16:10;;;;;;;8.88;4.53;;;;;;;11.37;100.00;100596.87;1748381;81;21809;-71
2022/05/09 02:18:37;;;;;;;6.47;3.87;;;;;;;11.39;100.00;100597.69;1748275;82;21091;-72
2022/05/09 02:21:03;;;;;;;8.25;4.05;;;;;;;11.40;100.00;100605.13;1748345;82;21092;-70
2022/05/09 02:23:33;;;;;;;7.92;4.53;;;;;;;11.42;100.00;100605.48;1748441;82;21033;-70
2022/05/09 02:26:01;;;;;;;4.95;4.25;;;;;;;11.43;100.00;100611.62;1748429;82;21068;-71
2022/05/09 02:28:28;;;;;;;5.15;3.80;;;;;;;11.44;100.00;100612.89;1748345;82;21948;-70
2022/05/09 02:30:54;;;;;;;3.95;3.40;;;;;;;11.45;100.00;100617.25;1748434;82;21044;-71
2022/05/09 02:33:21;;;;;;;3.77;3.02;;;;;;;11.47;100.00;100623.80;1777111;80;21029;-73
2022/05/09 02:35:49;;;;;;;5.03;4.00;;;;;;;11.47;100.00;100623.80;1779085;80;21045;-71
2022/05/09 02:38:17;;;;;;;4.20;3.27;;;;;;;11.49;100.00;100630.74;1779208;80;21076;-71
2022/05/09 02:40:46;;;;;;;7.78;3.42;;;;;;;11.51;100.00;100634.20;1779327;80;21828;-71
2022/05/09 02:43:12;;;;;;;6.80;4.08;;;;;;;11.53;100.00;100636.80;1779284;80;21076;-70
2022/05/09 02:45:40;;;;;;;4.50;3.20;;;;;;;11.53;100.00;100629.73;1779241;80;21046;-72
2022/05/09 02:48:08;;;;;;;6.30;3.83;;;;;;;11.55;100.00;100639.78;1779098;80;21112;-70
2022/05/09 02:50:35;;;;;;;4.15;2.90;;;;;;;11.56;100.00;100636.69;1779086;80;21036;-70
2022/05/09 02:53:02;;;;;;;4.62;3.40;;;;;;;11.57;100.00;100633.58;1778644;80;21244;-73
2022/05/09 02:55:33;;;;;;;5.10;3.90;;;;;;;11.54;100.00;100639.36;1778826;80;21620;-72
2022/05/09 02:58:00;;;;;;;9.88;3.77;;;;;;;11.52;100.00;100639.86;1778975;80;21061;-71
2022/05/09 03:00:29;;;;;;;7.58;4.30;;;;;;;11.53;100.00;100653.48;1779228;80;20998;-70
2022/05/09 03:05:46;;;;;;;5.78;4.10;;;;;;;11.48;100.00;100660.69;1779023;80;21006;-70
2022/05/09 03:08:14;;;;;;;5.45;3.37;;;;;;;11.46;100.00;100662.50;1778733;80;21601;-72
2022/05/09 03:10:40;;;;;;;6.70;3.52;;;;;;;11.42;100.00;100667.92;1779223;80;21009;-71
2022/05/09 03:13:09;;;;;;;6.25;3.45;;;;;;;11.43;100.00;100671.81;1778697;80;21092;-71
2022/05/09 03:15:39;;;;;;;5.90;3.27;;;;;;;11.44;100.00;100673.55;1779141;80;21846;-71
2022/05/09 03:18:07;;;;;;;6.33;3.77;;;;;;;11.44;100.00;100677.52;1779380;80;21707;-72
2022/05/09 03:20:39;;;;;;;4.72;3.30;;;;;;;11.45;100.00;100675.27;1749509;80;21044;-72
2022/05/09 03:23:08;;;;;;;5.42;3.95;;;;;;;11.47;100.00;100678.72;1778830;80;20998;-70
2022/05/09 03:25:35;;;;;;;5.80;3.98;;;;;;;11.50;100.00;100674.69;1778871;80;20993;-74
2022/05/09 03:28:06;;;;;;;6.03;4.03;;;;;;;11.58;100.00;100678.85;1778774;80;21109;-71
2022/05/09 03:30:33;;;;;;;5.50;4.10;;;;;;;11.62;100.00;100691.00;1778744;80;21953;-71
2022/05/09 03:33:00;;;;;;;6.28;4.47;;;;;;;11.62;100.00;100698.91;1754574;80;21683;-73
2022/05/09 03:35:27;;;;;;;5.83;4.12;;;;;;;11.85;100.00;100701.69;1747834;82;21072;-70
2022/05/09 03:37:56;;;;;;;7.22;3.83;;;;;;;12.23;100.00;100688.98;1747921;82;21059;-72
2022/05/09 03:40:22;;;;;;;5.47;3.70;;;;;;;12.68;100.00;100696.19;1748300;82;21033;-70
2022/05/09 03:42:49;;;;;;;3.60;3.27;;;;;;;13.19;100.00;100696.45;1747969;82;23007;-71
2022/05/09 03:45:16;;;;;;;5.10;3.15;;;;;;;13.56;100.00;100695.03;1748372;82;21072;-71
2022/05/09 03:47:44;;;;;;;6.70;3.55;;;;;;;13.81;100.00;100701.98;1748021;82;21592;-73
2022/05/09 03:50:13;;;;;;;4.33;3.12;;;;;;;14.14;100.00;100701.48;1747929;82;21053;-72
2022/05/09 03:52:43;;;;;;;3.75;3.05;;;;;;;14.24;100.00;100702.36;1748369;82;21552;-71
2022/05/09 03:55:09;;;;;;;5.33;3.30;;;;;;;14.36;100.00;100704.94;1748114;82;21766;-72
2022/05/09 03:57:51;;;;;;;5.85;3.20;;;;;;;14.56;100.00;100717.79;1747695;82;21072;-71
2022/05/09 04:00:21;;;;;;;8.03;3.47;;;;;;;14.81;98.98;100718.88;1747989;82;20989;-71
2022/05/09 04:02:47;;;;;;;7.12;3.55;;;;;;;14.95;98.45;100718.25;1748133;82;21045;-72
2022/05/09 04:05:18;;;;;;;4.08;2.92;;;;;;;15.07;98.18;100719.04;1748117;82;21123;-70
2022/05/09 04:07:51;;;;;;;5.20;3.35;;;;;;;15.19;96.17;100718.45;1748062;82;21098;-71
2022/05/09 04:10:22;;;;;;;4.45;3.15;;;;;;;15.31;93.69;100719.67;1748099;82;21537;-71
2022/05/09 04:12:50;;;;;;;4.37;3.22;;;;;;;15.22;94.51;100730.24;1747827;82;21028;-71
2022/05/09 04:18:04;;;;;;;4.50;3.52;;;;;;;14.76;94.88;100736.80;1747801;81;21616;-72
2022/05/09 04:20:30;;;;;;;4.47;3.65;;;;;;;14.45;95.69;100740.31;1747988;82;21106;-71
2022/05/09 04:22:59;;;;;;;4.42;3.25;;;;;;;14.15;96.76;100746.45;1747708;82;21020;-71
2022/05/09 04:25:28;;;;;;;6.12;3.70;;;;;;;13.88;98.17;100746.27;1747970;82;21029;-70
2022/05/09 04:27:57;;;;;;;5.70;4.47;;;;;;;13.67;100.00;100758.59;1747555;82;21143;-70
2022/05/09 04:30:23;;;;;;;6.42;4.85;;;;;;;13.43;100.00;100753.32;1748096;82;21044;-74
2022/05/09 04:32:50;;;;;;;6.03;4.35;;;;;;;13.26;100.00;100759.70;1747696;82;21215;-71
2022/05/09 04:35:21;;;;;;;7.72;5.10;;;;;;;13.17;100.00;100768.38;1747628;82;21069;-71
2022/05/09 04:37:49;;;;;;;6.28;4.97;;;;;;;13.08;100.00;100768.72;1747823;82;21088;-70
2022/05/09 04:40:30;;;;;;;5.95;5.10;;;;;;;12.99;100.00;100766.42;1747772;82;21549;-70
2022/05/09 04:42:58;;;;;;;8.30;5.10;;;;;;;12.89;100.00;100768.55;1748407;82;21294;-70
2022/05/09 04:45:24;;;;;;;10.60;5.28;;;;;;;12.83;100.00;100770.55;1747764;82;21232;-71
2022/05/09 04:47:51;;;;;;;7.75;5.30;;;;;;;12.77;100.00;100781.75;1747775;82;21061;-71
2022/05/09 04:50:22;;;;;;;6.20;4.85;;;;;;;12.78;100.00;100776.84;1747900;82;21037;-73
2022/05/09 04:52:48;;;;;;;4.87;3.43;;;;;;;12.78;100.00;100780.81;1748287;82;21073;-72
2022/05/09 04:55:16;;;;;;;6.92;4.75;;;;;;;12.72;100.00;100777.09;1747909;82;21128;-70
2022/05/09 04:57:45;;;;;;;6.75;4.67;;;;;;;12.67;100.00;100792.22;1748065;82;21089;-70
2022/05/09 05:00:15;;;;;;;5.50;4.45;;;;;;;12.66;100.00;100789.66;1747858;82;21060;-70
2022/05/09 05:02:42;;;;;;;7.85;5.00;;;;;;;12.66;100.00;100795.80;1748186;82;21080;-72
2022/05/09 05:05:09;;;;;;;9.63;4.75;;;;;;;12.78;100.00;100805.92;1747880;82;21076;-71
2022/05/09 05:07:37;;;;;;;8.55;4.97;;;;;;;12.92;100.00;100793.53;1747903;82;21036;-72
2022/05/09 05:10:06;;;;;;;6.22;4.47;;;;;;;13.03;100.00;100805.05;1747992;82;21205;-71
2022/05/09 05:12:33;;;;;;;6.15;4.42;;;;;;;13.23;100.00;100806.98;1748076;82;21587;-71
2022/05/09 05:15:00;;;;;;;8.33;4.90;;;;;;;13.65;100.00;100803.64;1748442;82;21513;-71
2022/05/09 05:17:27;;;;;;;4.67;3.80;;;;;;;14.09;97.04;100808.94;1751376;81;21080;-72
2022/05/09 05:19:54;;;;;;;4.72;3.72;;;;;;;14.54;94.84;100807.08;1753798;81;21060;-71
2022/05/09 05:22:21;;;;;;;4.83;3.70;;;;;;;15.12;90.51;100815.18;1753731;81;22152;-72
2022/05/09 05:24:52;;;;;;;5.37;3.35;;;;;;;15.45;87.62;100814.56;1753461;81;21052;-70
2022/05/09 05:27:19;;;;;;;4.17;2.85;;;;;;;15.80;84.80;100812.92;1753444;81;21029;-72
2022/05/09 05:29:45;;;;;;;3.90;2.87;;;;;;;16.32;80.87;100819.69;1753816;81;21061;-71
2022/05/09 05:32:20;;;;;;;3.77;2.83;;;;;;;16.71;78.81;100819.08;1767644;80;21016;-71
2022/05/09 05:34:49;;;;;;;3.85;3.10;;;;;;;16.78;76.45;100820.47;1784812;80;21098;-72
2022/05/09 05:37:20;;;;;;;4.67;3.15;;;;;;;16.53;74.37;100819.06;1784501;80;21035;-71
2022/05/09 05:39:47;;;;;;;4.95;2.85;;;;;;;16.40;74.89;100832.58;1783845;80;21044;-70
2022/05/09 05:42:17;;;;;;;5.45;2.80;;;;;;;16.36;76.01;100835.88;1784592;80;21002;-71
2022/05/09 05:44:48;;;;;;;5.33;3.00;;;;;;;16.45;75.53;100825.26;1785123;80;20997;-71
2022/05/09 05:47:17;;;;;;;4.65;2.92;;;;;;;16.57;74.44;100825.95;1784677;80;22162;-72
2022/05/09 05:49:43;;;;;;;4.00;2.80;;;;;;;16.78;73.62;100831.11;1784799;80;21029;-73
2022/05/09 05:52:11;;;;;;;3.85;2.47;;;;;;;17.08;73.42;100838.47;1784567;80;20974;-71
2022/05/09 05:54:40;;;;;;;3.47;2.58;;;;;;;17.58;69.83;100828.23;1784696;80;21516;-70
2022/05/09 05:57:25;;;;;;;4.05;2.40;;;;;;;18.08;68.01;100830.34;1784490;80;21035;-71
2022/05/09 05:59:56;;;;;;;3.72;2.22;;;;;;;18.57;65.02;100831.50;1784715;80;21088;-71
2022/05/09 06:02:23;;;;;;;5.22;2.42;;;;;;;19.07;64.02;100824.48;1784035;80;21502;-73
2022/05/09 06:04:50;;;;;;;3.05;2.10;;;;;;;19.57;59.12;100836.09;1784492;80;21548;-72
2022/05/09 06:07:18;;;;;;;2.98;1.92;;;;;;;19.78;59.47;100834.74;1784563;80;21520;-73
2022/05/09 06:09:45;;;;;;;3.58;1.87;;;;;;;20.05;59.46;100833.44;1784434;80;21123;-72
2022/05/09 06:12:17;;;;;;;2.87;2.00;;;;;;;20.64;57.56;100836.28;1784453;80;21130;-71
2022/05/09 06:14:44;;;;;;;3.77;1.90;;;;;;;21.14;54.94;100827.89;1784874;80;21456;-72
2022/05/09 06:17:11;;;;;;;2.60;2.05;;;;;;;21.48;47.79;100830.41;1784440;80;21033;-73
2022/05/09 06:19:38;;;;;;;3.30;1.77;;;;;;;21.50;46.37;100833.84;1784556;80;21498;-73
2022/05/09 06:22:06;;;;;;;2.67;1.80;;;;;;;21.32;47.59;100847.17;1784677;80;21029;-71
2022/05/09 06:24:33;;;;;;;2.40;1.70;;;;;;;21.03;47.41;100850.09;1784681;80;21886;-71
2022/05/09 06:26:59;;;;;;;2.67;1.82;;;;;;;20.53;47.95;100853.02;1784859;80;20997;-70
2022/05/09 06:29:26;;;;;;;3.50;1.95;;;;;;;19.96;48.30;100850.56;1784649;80;21025;-71
2022/05/09 06:31:53;;;;;;;3.30;1.82;;;;;;;19.39;50.33;100857.65;1774595;80;21517;-72
2022/05/09 06:34:20;;;;;;;2.15;1.85;;;;;;;19.04;49.47;100859.35;1753465;81;22089;-72
2022/05/09 06:36:46;;;;;;;2.92;1.98;;;;;;;18.60;50.19;100861.99;1753923;81;21684;-72
2022/05/09 06:39:13;;;;;;;4.55;1.62;;;;;;;18.28;51.48;100868.72;1753525;81;21032;-74
2022/05/09 06:41:41;;;;;;;2.12;1.72;;;;;;;18.35;51.16;100867.89;1753640;81;21088;-72
2022/05/09 06:44:07;;;;;;;2.83;1.77;;;;;;;18.47;50.72;100863.17;1753468;81;21069;-72
2022/05/09 06:46:34;;;;;;;1.98;1.52;;;;;;;18.83;50.47;100863.33;1753814;81;21055;-73
2022/05/09 06:49:01;;;;;;;2.77;1.50;;;;;;;19.31;49.51;100865.30;1753581;81;21219;-71
2022/05/09 06:51:27;;;;;;;4.03;1.77;;;;;;;19.55;48.09;100866.91;1753648;81;21089;-72
2022/05/09 06:53:54;;;;;;;8.53;1.60;;;;;;;19.59;46.60;100870.25;1753395;81;21052;-72
2022/05/09 06:56:22;;;;;;;4.78;1.70;;;;;;;19.71;45.66;100864.16;1753721;81;21074;-72
2022/05/09 06:58:49;;;;;;;4.87;1.50;;;;;;;19.96;44.71;100869.27;1753468;81;21055;-72
2022/05/09 07:01:19;;;;;;;4.40;1.80;;;;;;;19.97;43.45;100870.97;1753348;81;21096;-72
2022/05/09 07:03:47;;;;;;;4.55;1.72;;;;;;;20.02;41.71;100870.22;1753284;81;21029;-71
2022/05/09 07:06:17;;;;;;;3.92;1.40;;;;;;;20.11;41.75;100869.62;1753578;81;20992;-72
2022/05/09 07:08:42;;;;;;;4.83;1.40;;;;;;;20.27;40.49;100875.69;1753285;81;21509;-73
2022/05/09 07:11:10;;;;;;;6.35;1.52;;;;;;;20.38;40.69;100877.63;1753861;81;21047;-72
2022/05/09 07:13:36;;;;;;;3.87;1.40;;;;;;;20.53;39.89;100878.44;1753357;81;21249;-71
2022/05/09 07:16:04;;;;;;;2.33;1.45;;;;;;;20.53;38.95;100874.43;1753353;81;21123;-72
2022/05/09 07:18:32;;;;;;;5.90;1.45;;;;;;;20.47;39.32;100874.83;1749143;81;21063;-72
2022/05/09 07:20:59;;;;;;;2.83;1.30;;;;;;;20.16;38.66;100883.55;1748079;82;21039;-73
2022/05/09 07:23:25;;;;;;;2.62;1.12;;;;;;;19.72;37.97;100884.59;1747994;82;21092;-74
2022/05/09 07:25:52;;;;;;;2.47;1.22;;;;;;;19.54;39.10;100884.38;1747859;82;21242;-73
2022/05/09 07:28:21;;;;;;;3.02;1.32;;;;;;;19.35;39.08;100888.65;1747716;82;21074;-70
2022/05/09 07:30:49;;;;;;;2.50;1.37;;;;;;;19.14;39.06;100882.81;1747899;82;21012;-73
2022/05/09 07:33:18;;;;;;;2.83;1.25;;;;;;;19.24;39.47;100891.52;1775257;80;21111;-72
2022/05/09 07:35:45;;;;;;;5.47;1.50;;;;;;;19.65;38.96;100889.43;1778752;80;21024;-73
2022/05/09 07:38:13;;;;;;;3.02;1.30;;;;;;;20.18;38.00;100884.80;1778736;80;21239;-73
2022/05/09 07:40:43;;;;;;;3.17;1.30;;;;;;;20.61;36.04;100889.50;1778599;80;21072;-73
2022/05/09 07:43:14;;;;;;;4.33;1.07;;;;;;;20.92;35.87;100884.77;1778803;80;21060;-73
2022/05/09 07:45:45;;;;;;;2.65;1.12;;;;;;;21.35;35.20;100888.50;1778997;80;21548;-73
2022/05/09 07:48:12;;;;;;;3.58;1.12;;;;;;;21.51;32.72;100894.52;1779039;80;21005;-73
2022/05/09 07:50:39;;;;;;;4.78;1.45;;;;;;;21.70;32.99;100883.83;1779073;80;21497;-74
2022/05/09 07:53:09;;;;;;;3.77;1.12;;;;;;;22.05;32.99;100884.44;1778747;80;21068;-72
2022/05/09 07:55:36;;;;;;;7.67;1.72;;;;;;;22.30;31.49;100885.70;1777386;80;21025;-72
2022/05/09 07:58:02;;;;;;;2.05;1.10;;;;;;;22.34;31.30;100887.20;1778929;80;21029;-72
2022/05/09 08:00:29;;;;;;;2.25;1.20;;;;;;;22.33;31.29;100893.52;1778505;80;21059;-72
2022/05/09 08:02:57;;;;;;;4.95;1.20;;;;;;;22.54;30.68;100886.17;1778978;80;21074;-73
2022/05/09 08:05:24;;;;;;;2.95;1.32;;;;;;;22.88;31.32;100891.67;1778676;80;21162;-72
2022/05/09 08:07:51;;;;;;;6.42;1.30;;;;;;;23.38;29.66;100885.58;1778894;80;21049;-71
2022/05/09 08:10:18;;;;;;;4.97;1.10;;;;;;;23.57;29.26;100883.12;1778710;80;21076;-71
2022/05/09 08:12:44;;;;;;;6.87;1.12;;;;;;;23.60;29.59;100888.28;1779040;80;21028;-72
2022/05/09 08:15:13;;;;;;;3.52;0.90;;;;;;;23.66;29.36;100893.64;1778753;80;21591;-74
2022/05/09 08:17:39;;;;;;;2.47;0.90;;;;;;;23.88;28.67;100887.44;1780151;80;21037;-72
2022/05/09 08:20:08;;;;;;;2.90;0.95;;;;;;;23.90;28.18;100898.05;1779827;80;21498;-72
2022/05/09 08:22:34;;;;;;;1.90;0.98;;;;;;;23.71;27.31;100900.00;1778653;80;21100;-71
2022/05/09 08:25:03;;;;;;;2.10;0.85;;;;;;;23.46;26.98;100897.41;1779044;80;21541;-70
2022/05/09 08:27:29;;;;;;;5.85;1.45;;;;;;;23.33;27.70;100894.00;1778720;80;21267;-71
2022/05/09 08:29:57;;;;;;;5.20;1.47;;;;;;;23.20;26.66;100902.16;1778525;80;20997;-72
2022/05/09 08:32:24;;;;;;;6.67;1.30;;;;;;;23.12;27.43;100902.38;1762395;80;21224;-73
2022/05/09 08:34:51;;;;;;;3.25;1.20;;;;;;;23.12;27.67;100901.03;1747956;82;21032;-70
2022/05/09 08:37:20;;;;;;;2.52;1.20;;;;;;;23.11;27.06;100902.88;1747714;82;21056;-73
2022/05/09 08:39:47;;;;;;;3.40;1.07;;;;;;;23.03;26.54;100910.69;1748148;82;21087;-74
2022/05/09 08:42:26;;;;;;;2.65;1.12;;;;;;;22.72;26.52;100898.70;1747888;82;21049;-73
2022/05/09 08:45:10;;;;;;;4.72;1.27;;;;;;;22.74;27.68;100911.03;1748380;82;21115;-73
2022/05/09 08:47:51;;;;;;;3.40;1.30;;;;;;;23.00;26.84;100912.24;1748288;82;21072;-72
2022/05/09 08:50:50;;;;;;;2.05;1.10;;;;;;;22.97;26.16;100903.05;1748140;82;21073;-72
2022/05/09 08:53:25;;;;;;;4.55;1.20;;;;;;;22.94;26.48;100920.27;1747907;82;21139;-72
2022/05/09 08:55:55;;;;;;;4.60;1.30;;;;;;;22.51;26.40;100912.77;1747919;82;21041;-74
2022/05/09 08:58:51;;;;;;;2.72;1.10;;;;;;;22.04;27.56;100921.13;1747906;82;21028;-72
2022/05/09 09:01:39;;;;;;;2.70;0.95;;;;;;;21.79;27.51;100921.55;1748064;82;21091;-72
2022/05/09 09:04:13;;;;;;;2.87;1.00;;;;;;;21.38;27.92;100917.75;1748171;82;21501;-71
2022/05/09 09:06:49;;;;;;;7.08;1.02;;;;;;;20.99;28.09;100922.70;1682942;85;21134;-72
2022/05/09 09:09:56;;;;;;;1.87;1.00;;;;;;;20.92;27.94;100923.59;1681102;85;21037;-72
2022/05/09 09:12:58;;;;;;;4.17;0.90;;;;;;;20.91;27.05;100925.88;1747867;82;21024;-73
2022/05/09 09:15:48;;;;;;;1.22;0.72;;;;;;;20.86;25.51;100930.69;1743690;82;21549;-73
2022/05/09 09:18:40;;;;;;;2.10;0.85;;;;;;;21.00;25.84;100927.08;1723863;82;21040;-74
2022/05/09 09:21:41;;;;;;;1.90;1.05;;;;;;;21.28;25.76;100924.69;1745705;81;21443;-73
2022/05/09 09:24:42;;;;;;;2.52;0.78;;;;;;;21.57;24.81;100917.34;1747972;82;21084;-71
2022/05/09 09:27:43;;;;;;;;;;;;;;;21.75;23.48;100924.07;1750617;82;21044;-73
2022/05/09 09:30:17;;;;;;;2.25;1.10;;;;;;;21.83;23.27;100923.52;1748060;82;20196;-72
2022/05/09 09:32:52;;;;;;;2.98;0.88;;;;;;;22.08;22.94;100923.94;1768839;80;21545;-72
2022/05/09 09:35:44;;;;;;;1.72;0.93;;;;;;;22.37;23.54;100923.19;1778229;80;21241;-74
2022/05/09 09:38:55;;;;;;;4.12;0.98;;;;;;;22.72;22.44;100931.77;1778912;80;21001;-73
2022/05/09 09:41:34;;;;;;;4.55;1.00;;;;;;;22.79;20.85;100931.67;1779345;80;21048;-73
2022/05/09 09:44:20;;;;;;;3.33;0.98;;;;;;;22.97;21.22;100932.60;1779105;80;21184;-74
2022/05/09 09:47:23;;;;;;;2.60;0.78;;;;;;;23.40;21.24;100932.02;1778948;80;21009;-72
2022/05/09 09:50:12;;;;;;;3.05;0.78;;;;;;;23.76;21.53;100916.64;1779186;80;21177;-73
2022/05/09 09:52:56;;;;;;;1.53;0.80;;;;;;;23.87;19.68;100909.91;1779187;80;22041;-73
2022/05/09 09:55:32;;;;;;;2.00;0.90;;;;;;;24.12;19.83;100924.08;1748629;80;21253;-72
2022/05/09 09:58:21;;;;;;;5.75;1.20;;;;;;;24.28;20.11;100925.88;1778841;80;21044;-72
2022/05/09 10:01:10;;;;;;;1.80;0.80;;;;;;;24.32;20.53;100920.61;1778904;80;21076;-73
2022/05/09 10:03:43;;;;;;;2.22;0.80;;;;;;;24.21;20.72;100924.67;1779098;80;21217;-72
2022/05/09 10:06:18;;;;;;;3.25;0.80;;;;;;;24.29;19.82;100919.50;1779068;80;21088;-72
2022/05/09 10:08:45;;;;;;;4.65;1.17;;;;;;;24.27;19.40;100912.03;1778558;80;21049;-71
2022/05/09 10:11:23;;;;;;;3.17;1.00;;;;;;;24.31;20.04;100904.08;1778907;79;21053;-72
2022/05/09 10:13:53;;;;;;;4.72;1.25;;;;;;;24.31;19.57;100917.53;1779039;80;21092;-71
2022/05/09 10:16:41;;;;;;;4.37;1.00;;;;;;;24.36;19.49;100927.42;1778881;80;21153;-72
2022/05/09 10:19:11;;;;;;;3.90;0.90;;;;;;;24.17;19.33;100926.75;1778819;80;21137;-72
2022/05/09 10:24:49;;;;;;;2.75;0.78;;;;;;;24.07;19.95;100923.11;1784263;79;21022;-71
2022/05/09 10:27:29;;;;;;;4.53;1.07;;;;;;;24.17;19.48;100923.20;1784550;80;21490;-71
2022/05/09 10:30:19;;;;;;;5.15;0.93;;;;;;;24.29;19.16;100931.14;1784729;80;21839;-72
2022/05/09 10:32:51;;;;;;;1.00;0.70;;;;;;;24.29;19.36;100922.19;1763544;80;20985;-71
2022/05/09 10:35:35;;;;;;;5.05;1.07;;;;;;;23.99;18.71;100921.02;1753626;81;21053;-72
2022/05/09 10:38:07;;;;;;;3.62;0.80;;;;;;;23.68;19.88;100921.77;1749286;81;21064;-73
2022/05/09 10:40:50;;;;;;;2.95;0.98;;;;;;;23.84;20.53;100920.93;1753723;81;21025;-73
2022/05/09 10:43:28;;;;;;;1.32;0.72;;;;;;;24.04;20.23;100921.52;1753590;81;21336;-74
2022/05/09 10:45:54;;;;;;;5.45;0.82;;;;;;;23.98;19.45;100914.44;1753837;81;21726;-73
2022/05/09 10:48:34;;;;;;;3.77;1.07;;;;;;;24.18;20.25;100918.17;1753583;81;21068;-74
2022/05/09 10:51:23;;;;;;;2.22;0.80;;;;;;;24.35;18.74;100921.70;1753747;81;21017;-72
2022/05/09 10:53:55;;;;;;;3.12;0.90;;;;;;;24.18;18.56;100908.76;1744309;81;21044;-73
2022/05/09 10:56:56;;;;;;;3.55;0.80;;;;;;;23.98;19.02;100903.18;1753803;81;21110;-73
2022/05/09 10:59:29;;;;;;;1.52;0.72;;;;;;;24.11;20.40;100908.43;1753736;81;26953;-72
2022/05/09 11:02:01;;;;;;;3.02;0.80;;;;;;;24.32;19.03;100908.50;1753924;81;21040;-72
2022/05/09 11:04:30;;;;;;;2.95;0.65;;;;;;;24.54;19.11;100910.28;1753657;81;21017;-75
2022/05/09 11:07:20;;;;;;;3.05;0.80;;;;;;;24.73;18.45;100904.19;1754041;81;21036;-73
2022/05/09 11:10:37;;;;;;;3.95;0.88;;;;;;;24.82;18.83;100910.15;1753837;81;21134;-73
2022/05/09 11:13:15;;;;;;;1.30;0.75;;;;;;;24.56;18.64;100915.55;1753101;81;21513;-71
2022/05/09 11:16:08;;;;;;;2.15;0.88;;;;;;;24.33;19.93;100910.20;1753745;81;21064;-71
2022/05/09 11:19:06;;;;;;;5.10;0.95;;;;;;;24.26;19.49;100905.80;1752097;81;21076;-71
2022/05/09 11:21:48;;;;;;;7.62;1.15;;;;;;;23.99;18.95;100912.95;1748887;80;20989;-71
2022/05/09 11:24:38;;;;;;;4.20;1.10;;;;;;;23.71;19.71;100908.06;1748091;82;21997;-71
2022/05/09 11:27:43;;;;;;;1.95;0.90;;;;;;;23.74;19.83;100893.02;1747961;82;21599;-73
2022/05/09 11:30:52;;;;;;;5.33;0.80;;;;;;;23.83;20.31;100895.88;1747912;82;22251;-73
2022/05/09 11:33:46;;;;;;;3.92;1.02;;;;;;;24.08;19.96;100893.36;1742581;82;22110;-73
2022/05/09 11:36:39;;;;;;;3.98;0.95;;;;;;;24.19;19.70;100892.98;1742061;82;21097;-73
2022/05/09 11:39:40;;;;;;;3.35;0.75;;;;;;;23.97;20.09;100888.03;1742221;82;21316;-72
2022/05/09 11:46:08;;;;;;;1.95;0.82;;;;;;;23.75;19.51;100895.63;1742262;82;21502;-73
2022/05/09 11:48:43;;;;;;;8.23;1.32;;;;;;;23.89;20.53;100896.36;1742037;82;21033;-73
2022/05/09 11:51:36;;;;;;;1.30;0.60;;;;;;;24.01;19.59;100897.54;1734168;82;20982;-73
2022/05/09 11:54:22;;;;;;;2.25;0.78;;;;;;;23.95;18.97;100903.44;1735029;82;21115;-73
2022/05/09 11:56:54;;;;;;;9.03;1.10;;;;;;;23.86;18.95;100893.42;1741745;82;21463;-72
2022/05/09 11:59:29;;;;;;;;;;;;;;;23.75;19.24;100879.98;1745121;82;21074;-72
2022/05/09 12:02:08;;;;;;;3.25;0.70;;;;;;;23.61;19.51;100881.91;1741931;82;20198;-73
2022/05/09 12:04:46;;;;;;;2.05;0.70;;;;;;;23.44;19.95;100885.95;1741931;82;21061;-72
2022/05/09 12:07:36;;;;;;;3.67;1.00;;;;;;;23.46;18.53;100885.81;1741354;82;21288;-74